createdAt,value
2022-09-27T19:39:00.351Z,8.20
2022-09-27T19:41:27.492Z,8.20
2022-09-27T19:43:55.533Z,8.20
2022-09-27T19:46:24.589Z,8.10
2022-09-27T19:48:53.511Z,8.20
2022-09-27T19:51:22.876Z,8.10
2022-09-27T19:53:50.579Z,8.10
2022-09-27T19:56:18.291Z,8.10
2022-09-27T19:58:45.519Z,8.10
2022-09-27T20:01:14.910Z,8.10
2022-09-27T20:03:44.060Z,8.00
2022-09-27T20:06:15.618Z,8.00
2022-09-27T20:08:43.675Z,8.00
2022-09-27T20:11:22.729Z,8.00
2022-09-27T20:13:51.741Z,7.90
2022-09-27T20:16:24.118Z,8.00
2022-09-27T20:18:53.301Z,7.90
2022-09-27T20:21:21.841Z,7.90
2022-09-27T20:23:51.205Z,8.00
2022-09-27T20:26:19.909Z,7.90
2022-09-27T20:28:52.079Z,8.00
2022-09-27T20:31:24.220Z,8.00
2022-09-27T20:33:51.663Z,8.00
2022-09-27T20:36:27.808Z,8.00
2022-09-27T20:39:04.152Z,8.00
2022-09-27T20:41:35.940Z,7.90
2022-09-27T20:44:05.523Z,7.90
2022-09-27T20:46:34.263Z,7.90
2022-09-27T20:49:07.301Z,7.90
2022-09-27T20:51:36.050Z,7.90
2022-09-27T20:54:04.473Z,7.90
2022-09-27T20:56:38.173Z,7.90
2022-09-27T20:59:10.440Z,7.90
2022-09-27T21:01:46.513Z,7.90
2022-09-27T21:04:15.416Z,7.90
2022-09-27T21:06:42.757Z,7.90
2022-09-27T21:09:11.226Z,7.90
2022-09-27T21:11:38.181Z,7.90
2022-09-27T21:14:05.122Z,7.90
2022-09-27T21:16:35.422Z,7.90
2022-09-27T21:19:02.565Z,7.90
2022-09-27T21:21:29.879Z,7.90
2022-09-27T21:23:59.404Z,8.00
2022-09-27T21:26:29.389Z,8.00
2022-09-27T21:28:58.764Z,8.00
2022-09-27T21:31:32.173Z,8.10
2022-09-27T21:34:01.706Z,8.00
2022-09-27T21:36:31.186Z,8.10
2022-09-27T21:38:58.720Z,8.10
2022-09-27T21:41:26.628Z,8.10
2022-09-27T21:43:53.983Z,8.00
2022-09-27T21:46:26.164Z,8.00
2022-09-27T21:49:02.218Z,8.00
2022-09-27T21:51:30.426Z,8.00
2022-09-27T21:54:00.748Z,8.00
2022-09-27T21:56:31.063Z,8.00
2022-09-27T21:58:58.170Z,7.90
2022-09-27T22:01:28.623Z,7.90
2022-09-27T22:03:56.038Z,7.90
2022-09-27T22:06:28.178Z,7.90
2022-09-27T22:08:56.754Z,7.80
2022-09-27T22:11:31.054Z,7.80
2022-09-27T22:13:58.218Z,7.80
2022-09-27T22:16:27.062Z,7.80
2022-09-27T22:18:56.312Z,7.80
2022-09-27T22:21:27.969Z,7.80
2022-09-27T22:24:07.697Z,7.90
2022-09-27T22:26:38.033Z,7.90
2022-09-27T22:29:06.300Z,8.00
2022-09-27T22:31:34.075Z,8.10
2022-09-27T22:34:03.650Z,8.10
2022-09-27T22:36:32.124Z,8.10
2022-09-27T22:38:59.667Z,8.10
2022-09-27T22:41:27.326Z,8.10
2022-09-27T22:43:54.375Z,8.10
2022-09-27T22:46:22.132Z,8.10
2022-09-27T22:48:49.842Z,8.10
2022-09-27T22:51:17.490Z,8.10
2022-09-27T22:53:44.476Z,8.10
2022-09-27T22:56:17.298Z,8.10
2022-09-27T22:58:45.192Z,8.00
2022-09-27T23:01:18.821Z,8.00
2022-09-27T23:03:46.291Z,8.00
2022-09-27T23:06:14.942Z,8.00
2022-09-27T23:08:42.616Z,8.00
2022-09-27T23:11:12.347Z,8.00
2022-09-27T23:13:42.606Z,8.10
2022-09-27T23:16:14.585Z,8.10
2022-09-27T23:18:42.671Z,8.10
2022-09-27T23:21:12.575Z,8.10
2022-09-27T23:23:41.535Z,8.10
2022-09-27T23:26:11.262Z,8.20
2022-09-27T23:28:38.940Z,8.20
2022-09-27T23:31:09.797Z,8.30
2022-09-27T23:33:42.119Z,8.30
2022-09-27T23:36:10.925Z,8.30
2022-09-27T23:38:40.298Z,8.30
2022-09-27T23:41:08.361Z,8.30
2022-09-27T23:43:36.479Z,8.30
2022-09-27T23:46:08.576Z,8.30
2022-09-27T23:48:36.382Z,8.40
2022-09-27T23:51:06.254Z,8.50
2022-09-27T23:53:33.720Z,8.50
2022-09-27T23:56:02.767Z,8.60
2022-09-27T23:58:37.104Z,8.60
